sensor_id;sensor_type;location;lat;lon;timestamp;P1;durP1;ratioP1;P2;durP2;ratioP2
1134;SDS011;556;53.550;10.048;2022-08-14T00:00:22;13.43;;;12.73;;
1134;SDS011;556;53.550;10.048;2022-08-14T00:02:49;13.83;;;13.23;;
1134;SDS011;556;53.550;10.048;2022-08-14T00:05:17;13.70;;;13.10;;
1134;SDS011;556;53.550;10.048;2022-08-14T00:07:46;13.10;;;12.60;;
1134;SDS011;556;53.550;10.048;2022-08-14T00:10:17;12.90;;;12.40;;
1134;SDS011;556;53.550;10.048;2022-08-14T00:12:47;12.90;;;12.20;;
1134;SDS011;556;53.550;10.048;2022-08-14T00:15:17;12.63;;;12.10;;
1134;SDS011;556;53.550;10.048;2022-08-14T00:17:48;14.57;;;13.67;;
1134;SDS011;556;53.550;10.048;2022-08-14T00:20:18;14.73;;;13.50;;
1134;SDS011;556;53.550;10.048;2022-08-14T00:22:47;13.70;;;13.10;;
1134;SDS011;556;53.550;10.048;2022-08-14T00:25:15;12.90;;;12.40;;
1134;SDS011;556;53.550;10.048;2022-08-14T00:27:42;16.90;;;15.10;;
1134;SDS011;556;53.550;10.048;2022-08-14T00:30:10;13.17;;;12.67;;
1134;SDS011;556;53.550;10.048;2022-08-14T00:32:39;12.80;;;12.30;;
1134;SDS011;556;53.550;10.048;2022-08-14T00:35:07;13.03;;;12.53;;
1134;SDS011;556;53.550;10.048;2022-08-14T00:37:36;13.13;;;12.00;;
1134;SDS011;556;53.550;10.048;2022-08-14T00:40:10;11.63;;;11.17;;
1134;SDS011;556;53.550;10.048;2022-08-14T00:42:40;13.67;;;13.07;;
1134;SDS011;556;53.550;10.048;2022-08-14T00:45:08;12.90;;;12.10;;
1134;SDS011;556;53.550;10.048;2022-08-14T00:47:37;11.30;;;10.70;;
1134;SDS011;556;53.550;10.048;2022-08-14T00:50:06;13.10;;;12.60;;
1134;SDS011;556;53.550;10.048;2022-08-14T00:52:36;12.43;;;12.03;;
1134;SDS011;556;53.550;10.048;2022-08-14T00:55:04;13.27;;;12.37;;
1134;SDS011;556;53.550;10.048;2022-08-14T00:57:34;13.40;;;12.90;;
1134;SDS011;556;53.550;10.048;2022-08-14T01:00:04;12.63;;;11.57;;
1134;SDS011;556;53.550;10.048;2022-08-14T01:02:35;11.90;;;11.50;;
1134;SDS011;556;53.550;10.048;2022-08-14T01:05:04;14.67;;;14.07;;
1134;SDS011;556;53.550;10.048;2022-08-14T01:07:32;12.13;;;11.63;;
1134;SDS011;556;53.550;10.048;2022-08-14T01:10:01;12.20;;;11.80;;
1134;SDS011;556;53.550;10.048;2022-08-14T01:12:30;12.20;;;11.60;;
1134;SDS011;556;53.550;10.048;2022-08-14T01:14:59;12.90;;;12.30;;
1134;SDS011;556;53.550;10.048;2022-08-14T01:17:29;13.17;;;12.67;;
1134;SDS011;556;53.550;10.048;2022-08-14T01:20:11;13.13;;;12.60;;
1134;SDS011;556;53.550;10.048;2022-08-14T01:22:59;15.00;;;14.40;;
1134;SDS011;556;53.550;10.048;2022-08-14T01:25:26;13.07;;;12.63;;
1134;SDS011;556;53.550;10.048;2022-08-14T01:27:53;13.33;;;12.70;;
1134;SDS011;556;53.550;10.048;2022-08-14T01:30:23;12.70;;;12.20;;
1134;SDS011;556;53.550;10.048;2022-08-14T01:32:51;12.80;;;12.30;;
1134;SDS011;556;53.550;10.048;2022-08-14T01:35:19;12.67;;;12.10;;
1134;SDS011;556;53.550;10.048;2022-08-14T01:37:47;13.53;;;11.90;;
1134;SDS011;556;53.550;10.048;2022-08-14T01:40:16;12.57;;;12.17;;
1134;SDS011;556;53.550;10.048;2022-08-14T01:42:44;12.10;;;11.60;;
1134;SDS011;556;53.550;10.048;2022-08-14T01:45:11;13.17;;;12.67;;
1134;SDS011;556;53.550;10.048;2022-08-14T01:47:39;12.73;;;11.93;;
1134;SDS011;556;53.550;10.048;2022-08-14T01:50:07;13.43;;;12.73;;
1134;SDS011;556;53.550;10.048;2022-08-14T01:52:36;12.17;;;11.77;;
1134;SDS011;556;53.550;10.048;2022-08-14T01:55:04;12.33;;;11.83;;
1134;SDS011;556;53.550;10.048;2022-08-14T01:57:35;12.57;;;12.10;;
1134;SDS011;556;53.550;10.048;2022-08-14T02:00:03;12.30;;;11.80;;
1134;SDS011;556;53.550;10.048;2022-08-14T02:02:32;12.40;;;11.63;;
1134;SDS011;556;53.550;10.048;2022-08-14T02:05:00;13.00;;;12.50;;
1134;SDS011;556;53.550;10.048;2022-08-14T02:07:27;12.67;;;12.10;;
1134;SDS011;556;53.550;10.048;2022-08-14T02:09:56;12.43;;;11.93;;
1134;SDS011;556;53.550;10.048;2022-08-14T02:12:24;13.10;;;12.60;;
1134;SDS011;556;53.550;10.048;2022-08-14T02:14:52;13.63;;;12.17;;
1134;SDS011;556;53.550;10.048;2022-08-14T02:17:20;12.47;;;12.07;;
1134;SDS011;556;53.550;10.048;2022-08-14T02:19:48;12.80;;;12.30;;
1134;SDS011;556;53.550;10.048;2022-08-14T02:22:15;11.80;;;11.40;;
1134;SDS011;556;53.550;10.048;2022-08-14T02:24:43;11.67;;;11.27;;
1134;SDS011;556;53.550;10.048;2022-08-14T02:27:11;12.33;;;11.53;;
1134;SDS011;556;53.550;10.048;2022-08-14T02:29:38;12.17;;;11.73;;
1134;SDS011;556;53.550;10.048;2022-08-14T02:32:07;11.13;;;10.73;;
1134;SDS011;556;53.550;10.048;2022-08-14T02:34:45;12.97;;;12.27;;
1134;SDS011;556;53.550;10.048;2022-08-14T02:37:12;11.33;;;10.93;;
1134;SDS011;556;53.550;10.048;2022-08-14T02:39:41;11.53;;;11.00;;
1134;SDS011;556;53.550;10.048;2022-08-14T02:42:11;12.27;;;11.77;;
1134;SDS011;556;53.550;10.048;2022-08-14T02:44:41;13.07;;;12.60;;
1134;SDS011;556;53.550;10.048;2022-08-14T02:47:10;12.93;;;12.33;;
1134;SDS011;556;53.550;10.048;2022-08-14T02:49:38;12.43;;;11.93;;
1134;SDS011;556;53.550;10.048;2022-08-14T02:52:05;11.87;;;11.30;;
1134;SDS011;556;53.550;10.048;2022-08-14T02:54:35;12.67;;;12.17;;
1134;SDS011;556;53.550;10.048;2022-08-14T02:57:03;11.43;;;11.00;;
1134;SDS011;556;53.550;10.048;2022-08-14T02:59:32;12.87;;;12.37;;
1134;SDS011;556;53.550;10.048;2022-08-14T03:02:03;12.87;;;12.37;;
1134;SDS011;556;53.550;10.048;2022-08-14T03:04:33;11.50;;;11.00;;
1134;SDS011;556;53.550;10.048;2022-08-14T03:07:00;11.70;;;11.10;;
1134;SDS011;556;53.550;10.048;2022-08-14T03:09:28;12.90;;;12.30;;
1134;SDS011;556;53.550;10.048;2022-08-14T03:11:55;12.80;;;11.70;;
1134;SDS011;556;53.550;10.048;2022-08-14T03:14:23;12.27;;;11.73;;
1134;SDS011;556;53.550;10.048;2022-08-14T03:16:50;13.30;;;12.60;;
1134;SDS011;556;53.550;10.048;2022-08-14T03:19:17;12.23;;;11.43;;
1134;SDS011;556;53.550;10.048;2022-08-14T03:21:46;11.10;;;10.70;;
1134;SDS011;556;53.550;10.048;2022-08-14T03:24:13;11.30;;;10.80;;
1134;SDS011;556;53.550;10.048;2022-08-14T03:26:42;11.93;;;11.47;;
1134;SDS011;556;53.550;10.048;2022-08-14T03:29:11;12.10;;;11.37;;
1134;SDS011;556;53.550;10.048;2022-08-14T03:31:40;12.30;;;11.70;;
1134;SDS011;556;53.550;10.048;2022-08-14T03:34:08;11.73;;;11.30;;
1134;SDS011;556;53.550;10.048;2022-08-14T03:36:37;12.20;;;11.80;;
1134;SDS011;556;53.550;10.048;2022-08-14T03:39:09;12.43;;;11.93;;
1134;SDS011;556;53.550;10.048;2022-08-14T03:41:37;11.70;;;11.20;;
1134;SDS011;556;53.550;10.048;2022-08-14T03:44:05;11.70;;;11.20;;
1134;SDS011;556;53.550;10.048;2022-08-14T03:46:33;11.40;;;10.90;;
1134;SDS011;556;53.550;10.048;2022-08-14T03:49:03;12.27;;;11.73;;
1134;SDS011;556;53.550;10.048;2022-08-14T03:51:31;11.10;;;10.70;;
1134;SDS011;556;53.550;10.048;2022-08-14T03:54:00;11.80;;;11.30;;
1134;SDS011;556;53.550;10.048;2022-08-14T03:56:30;12.10;;;11.60;;
1134;SDS011;556;53.550;10.048;2022-08-14T03:58:59;11.60;;;11.00;;
1134;SDS011;556;53.550;10.048;2022-08-14T04:01:34;12.07;;;11.47;;
1134;SDS011;556;53.550;10.048;2022-08-14T04:04:01;11.50;;;10.60;;
1134;SDS011;556;53.550;10.048;2022-08-14T04:06:30;11.43;;;10.93;;
1134;SDS011;556;53.550;10.048;2022-08-14T04:08:58;10.87;;;10.47;;
1134;SDS011;556;53.550;10.048;2022-08-14T04:11:25;11.90;;;11.30;;
1134;SDS011;556;53.550;10.048;2022-08-14T04:13:55;11.23;;;10.77;;
1134;SDS011;556;53.550;10.048;2022-08-14T04:16:25;12.20;;;11.70;;
1134;SDS011;556;53.550;10.048;2022-08-14T04:18:53;12.20;;;11.47;;
1134;SDS011;556;53.550;10.048;2022-08-14T04:21:22;11.60;;;11.10;;
1134;SDS011;556;53.550;10.048;2022-08-14T04:23:54;12.03;;;11.63;;
1134;SDS011;556;53.550;10.048;2022-08-14T04:26:24;11.33;;;10.93;;
1134;SDS011;556;53.550;10.048;2022-08-14T04:28:55;10.83;;;10.20;;
1134;SDS011;556;53.550;10.048;2022-08-14T04:31:23;12.67;;;11.97;;
1134;SDS011;556;53.550;10.048;2022-08-14T04:33:51;11.53;;;11.13;;
1134;SDS011;556;53.550;10.048;2022-08-14T04:36:20;11.33;;;10.83;;
1134;SDS011;556;53.550;10.048;2022-08-14T04:38:47;11.37;;;10.87;;
1134;SDS011;556;53.550;10.048;2022-08-14T04:41:31;11.17;;;10.67;;
1134;SDS011;556;53.550;10.048;2022-08-14T04:44:14;11.30;;;10.80;;
1134;SDS011;556;53.550;10.048;2022-08-14T04:46:41;11.27;;;10.87;;
1134;SDS011;556;53.550;10.048;2022-08-14T04:49:31;10.40;;;10.00;;
1134;SDS011;556;53.550;10.048;2022-08-14T04:51:58;12.67;;;11.90;;
1134;SDS011;556;53.550;10.048;2022-08-14T04:54:28;12.20;;;11.70;;
1134;SDS011;556;53.550;10.048;2022-08-14T04:56:56;12.80;;;12.10;;
1134;SDS011;556;53.550;10.048;2022-08-14T04:59:25;11.80;;;11.30;;
1134;SDS011;556;53.550;10.048;2022-08-14T05:01:52;11.33;;;10.93;;
1134;SDS011;556;53.550;10.048;2022-08-14T05:04:19;11.03;;;10.63;;
1134;SDS011;556;53.550;10.048;2022-08-14T05:06:49;11.07;;;10.53;;
1134;SDS011;556;53.550;10.048;2022-08-14T05:09:17;11.70;;;11.20;;
1134;SDS011;556;53.550;10.048;2022-08-14T05:11:44;12.37;;;11.47;;
1134;SDS011;556;53.550;10.048;2022-08-14T05:14:12;12.67;;;12.07;;
1134;SDS011;556;53.550;10.048;2022-08-14T05:16:40;11.60;;;11.10;;
1134;SDS011;556;53.550;10.048;2022-08-14T05:19:09;11.20;;;10.60;;
1134;SDS011;556;53.550;10.048;2022-08-14T05:21:38;11.73;;;10.90;;
1134;SDS011;556;53.550;10.048;2022-08-14T05:24:06;10.60;;;10.20;;
1134;SDS011;556;53.550;10.048;2022-08-14T05:26:36;11.70;;;11.13;;
1134;SDS011;556;53.550;10.048;2022-08-14T05:29:06;11.17;;;10.77;;
1134;SDS011;556;53.550;10.048;2022-08-14T05:31:34;11.23;;;10.73;;
1134;SDS011;556;53.550;10.048;2022-08-14T05:34:06;11.23;;;10.30;;
1134;SDS011;556;53.550;10.048;2022-08-14T05:36:34;10.70;;;10.20;;
1134;SDS011;556;53.550;10.048;2022-08-14T05:39:02;11.47;;;10.97;;
1134;SDS011;556;53.550;10.048;2022-08-14T05:41:29;11.17;;;10.67;;
1134;SDS011;556;53.550;10.048;2022-08-14T05:43:57;11.57;;;10.87;;
1134;SDS011;556;53.550;10.048;2022-08-14T05:46:25;12.20;;;11.60;;
1134;SDS011;556;53.550;10.048;2022-08-14T05:48:54;11.27;;;10.83;;
1134;SDS011;556;53.550;10.048;2022-08-14T05:51:25;10.90;;;10.50;;
1134;SDS011;556;53.550;10.048;2022-08-14T05:53:53;11.60;;;11.00;;
1134;SDS011;556;53.550;10.048;2022-08-14T05:56:21;11.37;;;10.87;;
1134;SDS011;556;53.550;10.048;2022-08-14T05:58:49;10.77;;;10.30;;
1134;SDS011;556;53.550;10.048;2022-08-14T06:01:17;11.70;;;11.30;;
1134;SDS011;556;53.550;10.048;2022-08-14T06:03:44;11.93;;;11.50;;
1134;SDS011;556;53.550;10.048;2022-08-14T06:06:12;11.43;;;11.03;;
1134;SDS011;556;53.550;10.048;2022-08-14T06:08:40;12.00;;;11.50;;
1134;SDS011;556;53.550;10.048;2022-08-14T06:11:07;11.93;;;11.33;;
1134;SDS011;556;53.550;10.048;2022-08-14T06:13:36;12.17;;;11.50;;
1134;SDS011;556;53.550;10.048;2022-08-14T06:16:05;11.73;;;11.13;;
1134;SDS011;556;53.550;10.048;2022-08-14T06:18:32;12.70;;;11.57;;
1134;SDS011;556;53.550;10.048;2022-08-14T06:21:00;11.13;;;10.70;;
1134;SDS011;556;53.550;10.048;2022-08-14T06:23:27;12.23;;;11.33;;
1134;SDS011;556;53.550;10.048;2022-08-14T06:25:56;12.43;;;11.73;;
1134;SDS011;556;53.550;10.048;2022-08-14T06:28:24;11.67;;;11.27;;
1134;SDS011;556;53.550;10.048;2022-08-14T06:30:52;11.33;;;10.93;;
1134;SDS011;556;53.550;10.048;2022-08-14T06:33:20;12.90;;;12.30;;
1134;SDS011;556;53.550;10.048;2022-08-14T06:35:47;12.53;;;11.80;;
1134;SDS011;556;53.550;10.048;2022-08-14T06:38:16;12.20;;;11.60;;
1134;SDS011;556;53.550;10.048;2022-08-14T06:40:45;12.20;;;11.70;;
1134;SDS011;556;53.550;10.048;2022-08-14T06:43:15;12.80;;;11.63;;
1134;SDS011;556;53.550;10.048;2022-08-14T06:45:43;11.80;;;11.40;;
1134;SDS011;556;53.550;10.048;2022-08-14T06:48:12;14.40;;;13.80;;
1134;SDS011;556;53.550;10.048;2022-08-14T06:50:41;11.83;;;11.33;;
1134;SDS011;556;53.550;10.048;2022-08-14T06:53:09;12.60;;;12.10;;
1134;SDS011;556;53.550;10.048;2022-08-14T06:55:39;11.50;;;11.10;;
1134;SDS011;556;53.550;10.048;2022-08-14T06:58:09;13.53;;;13.03;;
1134;SDS011;556;53.550;10.048;2022-08-14T07:00:39;13.97;;;13.27;;
1134;SDS011;556;53.550;10.048;2022-08-14T07:03:26;13.77;;;12.97;;
1134;SDS011;556;53.550;10.048;2022-08-14T07:06:12;14.30;;;13.60;;
1134;SDS011;556;53.550;10.048;2022-08-14T07:08:39;13.63;;;12.77;;
1134;SDS011;556;53.550;10.048;2022-08-14T07:11:08;12.37;;;11.80;;
1134;SDS011;556;53.550;10.048;2022-08-14T07:13:36;14.40;;;13.80;;
1134;SDS011;556;53.550;10.048;2022-08-14T07:16:05;13.70;;;12.93;;
1134;SDS011;556;53.550;10.048;2022-08-14T07:18:34;13.30;;;12.50;;
1134;SDS011;556;53.550;10.048;2022-08-14T07:21:03;13.33;;;12.83;;
1134;SDS011;556;53.550;10.048;2022-08-14T07:23:31;14.00;;;13.50;;
1134;SDS011;556;53.550;10.048;2022-08-14T07:25:59;13.90;;;13.30;;
1134;SDS011;556;53.550;10.048;2022-08-14T07:28:28;13.80;;;13.30;;
1134;SDS011;556;53.550;10.048;2022-08-14T07:30:57;14.90;;;14.10;;
1134;SDS011;556;53.550;10.048;2022-08-14T07:33:28;14.77;;;13.97;;
1134;SDS011;556;53.550;10.048;2022-08-14T07:35:59;13.17;;;12.10;;
1134;SDS011;556;53.550;10.048;2022-08-14T07:38:28;14.10;;;13.60;;
1134;SDS011;556;53.550;10.048;2022-08-14T07:40:55;14.40;;;13.60;;
1134;SDS011;556;53.550;10.048;2022-08-14T07:43:24;14.50;;;13.90;;
1134;SDS011;556;53.550;10.048;2022-08-14T07:45:51;14.50;;;13.90;;
1134;SDS011;556;53.550;10.048;2022-08-14T07:48:18;14.00;;;13.40;;
1134;SDS011;556;53.550;10.048;2022-08-14T07:50:47;14.60;;;14.00;;
1134;SDS011;556;53.550;10.048;2022-08-14T07:53:15;13.80;;;13.10;;
1134;SDS011;556;53.550;10.048;2022-08-14T07:55:42;14.57;;;13.67;;
1134;SDS011;556;53.550;10.048;2022-08-14T07:58:10;14.70;;;13.80;;
1134;SDS011;556;53.550;10.048;2022-08-14T08:00:39;14.23;;;13.23;;
1134;SDS011;556;53.550;10.048;2022-08-14T08:03:07;14.30;;;13.80;;
1134;SDS011;556;53.550;10.048;2022-08-14T08:05:36;14.30;;;13.80;;
1134;SDS011;556;53.550;10.048;2022-08-14T08:08:06;14.47;;;13.83;;
1134;SDS011;556;53.550;10.048;2022-08-14T08:10:40;15.13;;;14.60;;
1134;SDS011;556;53.550;10.048;2022-08-14T08:13:10;14.40;;;13.70;;
1134;SDS011;556;53.550;10.048;2022-08-14T08:15:40;14.30;;;13.03;;
1134;SDS011;556;53.550;10.048;2022-08-14T08:18:10;14.20;;;13.50;;
1134;SDS011;556;53.550;10.048;2022-08-14T08:20:39;13.93;;;13.17;;
1134;SDS011;556;53.550;10.048;2022-08-14T08:23:09;14.50;;;13.80;;
1134;SDS011;556;53.550;10.048;2022-08-14T08:25:37;14.70;;;13.87;;
1134;SDS011;556;53.550;10.048;2022-08-14T08:28:07;13.67;;;13.17;;
1134;SDS011;556;53.550;10.048;2022-08-14T08:30:37;14.37;;;13.67;;
1134;SDS011;556;53.550;10.048;2022-08-14T08:33:06;14.20;;;13.50;;
1134;SDS011;556;53.550;10.048;2022-08-14T08:35:36;14.67;;;13.80;;
1134;SDS011;556;53.550;10.048;2022-08-14T08:38:04;15.73;;;14.70;;
1134;SDS011;556;53.550;10.048;2022-08-14T08:40:35;14.73;;;14.13;;
1134;SDS011;556;53.550;10.048;2022-08-14T08:43:03;14.70;;;13.80;;
1134;SDS011;556;53.550;10.048;2022-08-14T08:45:32;14.87;;;14.27;;
1134;SDS011;556;53.550;10.048;2022-08-14T08:48:00;13.60;;;13.13;;
1134;SDS011;556;53.550;10.048;2022-08-14T08:50:30;14.30;;;13.60;;
1134;SDS011;556;53.550;10.048;2022-08-14T08:53:01;15.20;;;14.53;;
1134;SDS011;556;53.550;10.048;2022-08-14T08:55:31;15.47;;;14.87;;
1134;SDS011;556;53.550;10.048;2022-08-14T08:58:02;17.43;;;16.53;;
1134;SDS011;556;53.550;10.048;2022-08-14T09:00:31;15.40;;;14.80;;
1134;SDS011;556;53.550;10.048;2022-08-14T09:03:02;16.13;;;15.53;;
1134;SDS011;556;53.550;10.048;2022-08-14T09:05:32;15.60;;;14.97;;
1134;SDS011;556;53.550;10.048;2022-08-14T09:08:13;15.67;;;14.97;;
1134;SDS011;556;53.550;10.048;2022-08-14T09:10:44;15.90;;;15.30;;
1134;SDS011;556;53.550;10.048;2022-08-14T09:13:13;15.40;;;14.20;;
1134;SDS011;556;53.550;10.048;2022-08-14T09:15:42;17.13;;;16.53;;
1134;SDS011;556;53.550;10.048;2022-08-14T09:18:11;18.03;;;17.17;;
1134;SDS011;556;53.550;10.048;2022-08-14T09:20:40;16.40;;;15.77;;
1134;SDS011;556;53.550;10.048;2022-08-14T09:23:09;18.60;;;17.77;;
1134;SDS011;556;53.550;10.048;2022-08-14T09:25:37;17.53;;;16.63;;
1134;SDS011;556;53.550;10.048;2022-08-14T09:28:07;16.77;;;16.07;;
1134;SDS011;556;53.550;10.048;2022-08-14T09:30:38;16.87;;;16.10;;
1134;SDS011;556;53.550;10.048;2022-08-14T09:33:18;17.13;;;16.53;;
1134;SDS011;556;53.550;10.048;2022-08-14T09:36:21;17.53;;;16.60;;
1134;SDS011;556;53.550;10.048;2022-08-14T09:38:57;17.40;;;16.40;;
1134;SDS011;556;53.550;10.048;2022-08-14T09:41:47;17.83;;;16.93;;
1134;SDS011;556;53.550;10.048;2022-08-14T09:44:29;17.60;;;16.70;;
1134;SDS011;556;53.550;10.048;2022-08-14T09:47:08;18.27;;;17.00;;
1134;SDS011;556;53.550;10.048;2022-08-14T09:49:36;17.17;;;16.37;;
1134;SDS011;556;53.550;10.048;2022-08-14T09:52:09;19.00;;;18.10;;
1134;SDS011;556;53.550;10.048;2022-08-14T09:54:38;19.00;;;18.00;;
1134;SDS011;556;53.550;10.048;2022-08-14T09:57:08;18.10;;;17.30;;
1134;SDS011;556;53.550;10.048;2022-08-14T09:59:38;18.03;;;17.13;;
1134;SDS011;556;53.550;10.048;2022-08-14T10:02:21;18.63;;;17.73;;
1134;SDS011;556;53.550;10.048;2022-08-14T10:04:59;17.00;;;16.17;;
1134;SDS011;556;53.550;10.048;2022-08-14T10:07:28;18.43;;;17.60;;
1134;SDS011;556;53.550;10.048;2022-08-14T10:09:57;18.40;;;17.30;;
1134;SDS011;556;53.550;10.048;2022-08-14T10:12:39;18.37;;;17.60;;
1134;SDS011;556;53.550;10.048;2022-08-14T10:15:17;17.20;;;16.50;;
1134;SDS011;556;53.550;10.048;2022-08-14T10:17:46;17.40;;;16.80;;
1134;SDS011;556;53.550;10.048;2022-08-14T10:20:15;17.33;;;16.63;;
1134;SDS011;556;53.550;10.048;2022-08-14T10:22:46;17.67;;;17.07;;
1134;SDS011;556;53.550;10.048;2022-08-14T10:25:15;18.90;;;18.00;;
1134;SDS011;556;53.550;10.048;2022-08-14T10:27:44;18.83;;;18.13;;
1134;SDS011;556;53.550;10.048;2022-08-14T10:30:15;18.80;;;18.00;;
1134;SDS011;556;53.550;10.048;2022-08-14T10:32:45;20.30;;;19.50;;
1134;SDS011;556;53.550;10.048;2022-08-14T10:35:14;17.20;;;16.60;;
1134;SDS011;556;53.550;10.048;2022-08-14T10:37:44;18.23;;;17.40;;
1134;SDS011;556;53.550;10.048;2022-08-14T10:40:13;18.47;;;17.67;;
1134;SDS011;556;53.550;10.048;2022-08-14T10:42:42;18.90;;;18.10;;
1134;SDS011;556;53.550;10.048;2022-08-14T10:45:18;17.97;;;17.27;;
1134;SDS011;556;53.550;10.048;2022-08-14T10:47:47;19.53;;;18.23;;
1134;SDS011;556;53.550;10.048;2022-08-14T10:50:15;16.67;;;15.97;;
1134;SDS011;556;53.550;10.048;2022-08-14T10:52:43;18.60;;;17.70;;
1134;SDS011;556;53.550;10.048;2022-08-14T10:55:11;17.93;;;17.23;;
1134;SDS011;556;53.550;10.048;2022-08-14T10:57:47;17.90;;;17.20;;
1134;SDS011;556;53.550;10.048;2022-08-14T11:00:17;19.03;;;17.80;;
1134;SDS011;556;53.550;10.048;2022-08-14T11:02:56;18.87;;;17.97;;
1134;SDS011;556;53.550;10.048;2022-08-14T11:05:36;19.50;;;18.17;;
1134;SDS011;556;53.550;10.048;2022-08-14T11:08:06;20.30;;;18.90;;
1134;SDS011;556;53.550;10.048;2022-08-14T11:10:38;18.90;;;17.80;;
1134;SDS011;556;53.550;10.048;2022-08-14T11:13:07;19.17;;;18.30;;
1134;SDS011;556;53.550;10.048;2022-08-14T11:15:36;18.03;;;17.30;;
1134;SDS011;556;53.550;10.048;2022-08-14T11:18:05;18.67;;;17.77;;
1134;SDS011;556;53.550;10.048;2022-08-14T11:20:32;18.30;;;17.50;;
1134;SDS011;556;53.550;10.048;2022-08-14T11:23:00;19.17;;;17.95;;
1134;SDS011;556;53.550;10.048;2022-08-14T11:25:27;19.02;;;18.27;;
1134;SDS011;556;53.550;10.048;2022-08-14T11:27:57;18.48;;;17.25;;
1134;SDS011;556;53.550;10.048;2022-08-14T11:30:26;17.70;;;16.67;;
1134;SDS011;556;53.550;10.048;2022-08-14T11:32:54;17.92;;;17.15;;
1134;SDS011;556;53.550;10.048;2022-08-14T11:35:24;17.30;;;16.60;;
1134;SDS011;556;53.550;10.048;2022-08-14T11:37:53;17.38;;;16.67;;
1134;SDS011;556;53.550;10.048;2022-08-14T11:40:24;17.70;;;16.83;;
1134;SDS011;556;53.550;10.048;2022-08-14T11:42:53;17.45;;;16.75;;
1134;SDS011;556;53.550;10.048;2022-08-14T11:45:22;18.48;;;17.30;;
1134;SDS011;556;53.550;10.048;2022-08-14T11:47:50;17.80;;;16.83;;
1134;SDS011;556;53.550;10.048;2022-08-14T11:50:20;16.63;;;15.73;;
1134;SDS011;556;53.550;10.048;2022-08-14T11:52:50;18.17;;;17.35;;
1134;SDS011;556;53.550;10.048;2022-08-14T11:55:20;18.10;;;17.30;;
1134;SDS011;556;53.550;10.048;2022-08-14T11:57:57;17.85;;;17.02;;
1134;SDS011;556;53.550;10.048;2022-08-14T12:00:25;18.08;;;17.38;;
1134;SDS011;556;53.550;10.048;2022-08-14T12:02:54;18.35;;;17.55;;
1134;SDS011;556;53.550;10.048;2022-08-14T12:05:29;18.50;;;17.40;;
1134;SDS011;556;53.550;10.048;2022-08-14T12:07:59;18.88;;;17.88;;
1134;SDS011;556;53.550;10.048;2022-08-14T12:10:33;16.40;;;15.65;;
1134;SDS011;556;53.550;10.048;2022-08-14T12:13:09;17.95;;;17.15;;
1134;SDS011;556;53.550;10.048;2022-08-14T12:15:38;18.00;;;17.25;;
1134;SDS011;556;53.550;10.048;2022-08-14T12:18:06;17.38;;;16.63;;
1134;SDS011;556;53.550;10.048;2022-08-14T12:20:34;17.73;;;16.95;;
1134;SDS011;556;53.550;10.048;2022-08-14T12:23:05;17.35;;;16.65;;
1134;SDS011;556;53.550;10.048;2022-08-14T12:25:44;19.70;;;18.40;;
1134;SDS011;556;53.550;10.048;2022-08-14T12:28:11;19.17;;;18.15;;
1134;SDS011;556;53.550;10.048;2022-08-14T12:30:40;18.17;;;17.42;;
1134;SDS011;556;53.550;10.048;2022-08-14T12:33:20;19.92;;;18.83;;
1134;SDS011;556;53.550;10.048;2022-08-14T12:35:50;18.92;;;18.13;;
1134;SDS011;556;53.550;10.048;2022-08-14T12:38:30;19.95;;;19.05;;
1134;SDS011;556;53.550;10.048;2022-08-14T12:41:00;19.85;;;19.02;;
1134;SDS011;556;53.550;10.048;2022-08-14T12:43:30;18.92;;;18.05;;
1134;SDS011;556;53.550;10.048;2022-08-14T12:45:59;18.83;;;17.60;;
1134;SDS011;556;53.550;10.048;2022-08-14T12:48:26;18.80;;;17.92;;
1134;SDS011;556;53.550;10.048;2022-08-14T12:50:53;18.20;;;17.50;;
1134;SDS011;556;53.550;10.048;2022-08-14T12:53:31;20.25;;;19.25;;
1134;SDS011;556;53.550;10.048;2022-08-14T12:56:03;19.13;;;18.33;;
1134;SDS011;556;53.550;10.048;2022-08-14T12:58:32;19.40;;;17.80;;
1134;SDS011;556;53.550;10.048;2022-08-14T13:01:01;18.42;;;17.63;;
1134;SDS011;556;53.550;10.048;2022-08-14T13:03:29;19.75;;;18.85;;
1134;SDS011;556;53.550;10.048;2022-08-14T13:05:56;18.23;;;17.52;;
1134;SDS011;556;53.550;10.048;2022-08-14T13:08:24;18.00;;;17.30;;
1134;SDS011;556;53.550;10.048;2022-08-14T13:10:53;18.67;;;17.58;;
1134;SDS011;556;53.550;10.048;2022-08-14T13:13:22;17.50;;;16.80;;
1134;SDS011;556;53.550;10.048;2022-08-14T13:15:53;18.77;;;17.98;;
1134;SDS011;556;53.550;10.048;2022-08-14T13:18:20;17.58;;;16.77;;
1134;SDS011;556;53.550;10.048;2022-08-14T13:20:49;18.02;;;17.25;;
1134;SDS011;556;53.550;10.048;2022-08-14T13:23:18;18.15;;;17.15;;
1134;SDS011;556;53.550;10.048;2022-08-14T13:25:47;17.52;;;16.73;;
1134;SDS011;556;53.550;10.048;2022-08-14T13:28:19;16.67;;;15.98;;
1134;SDS011;556;53.550;10.048;2022-08-14T13:30:48;17.02;;;16.33;;
1134;SDS011;556;53.550;10.048;2022-08-14T13:33:15;17.88;;;17.08;;
1134;SDS011;556;53.550;10.048;2022-08-14T13:35:47;17.13;;;16.33;;
1134;SDS011;556;53.550;10.048;2022-08-14T13:38:16;16.65;;;16.02;;
1134;SDS011;556;53.550;10.048;2022-08-14T13:40:45;17.20;;;16.35;;
1134;SDS011;556;53.550;10.048;2022-08-14T13:43:15;17.67;;;16.92;;
1134;SDS011;556;53.550;10.048;2022-08-14T13:45:45;16.88;;;16.08;;
1134;SDS011;556;53.550;10.048;2022-08-14T13:48:12;15.85;;;15.05;;
1134;SDS011;556;53.550;10.048;2022-08-14T13:50:40;17.65;;;16.83;;
1134;SDS011;556;53.550;10.048;2022-08-14T13:53:13;16.42;;;15.77;;
1134;SDS011;556;53.550;10.048;2022-08-14T13:55:41;16.00;;;15.40;;
1134;SDS011;556;53.550;10.048;2022-08-14T13:58:12;16.00;;;15.40;;
1134;SDS011;556;53.550;10.048;2022-08-14T14:00:40;16.98;;;16.27;;
1134;SDS011;556;53.550;10.048;2022-08-14T14:03:11;15.50;;;14.90;;
1134;SDS011;556;53.550;10.048;2022-08-14T14:05:38;16.90;;;16.20;;
1134;SDS011;556;53.550;10.048;2022-08-14T14:08:08;17.08;;;16.20;;
1134;SDS011;556;53.550;10.048;2022-08-14T14:10:38;16.48;;;15.77;;
1134;SDS011;556;53.550;10.048;2022-08-14T14:13:06;16.48;;;15.63;;
1134;SDS011;556;53.550;10.048;2022-08-14T14:15:35;15.52;;;14.88;;
1134;SDS011;556;53.550;10.048;2022-08-14T14:18:04;15.93;;;15.32;;
1134;SDS011;556;53.550;10.048;2022-08-14T14:20:34;15.90;;;15.15;;
1134;SDS011;556;53.550;10.048;2022-08-14T14:23:03;16.70;;;15.98;;
1134;SDS011;556;53.550;10.048;2022-08-14T14:25:37;17.17;;;16.25;;
1134;SDS011;556;53.550;10.048;2022-08-14T14:28:07;18.67;;;17.77;;
1134;SDS011;556;53.550;10.048;2022-08-14T14:30:36;16.92;;;16.23;;
1134;SDS011;556;53.550;10.048;2022-08-14T14:33:07;16.40;;;15.70;;
1134;SDS011;556;53.550;10.048;2022-08-14T14:35:38;17.02;;;16.38;;
1134;SDS011;556;53.550;10.048;2022-08-14T14:38:12;18.08;;;17.20;;
1134;SDS011;556;53.550;10.048;2022-08-14T14:40:41;18.80;;;18.00;;
1134;SDS011;556;53.550;10.048;2022-08-14T14:43:12;18.02;;;17.33;;
1134;SDS011;556;53.550;10.048;2022-08-14T14:45:42;16.92;;;16.13;;
1134;SDS011;556;53.550;10.048;2022-08-14T14:48:13;16.85;;;16.25;;
1134;SDS011;556;53.550;10.048;2022-08-14T14:50:41;17.75;;;17.05;;
1134;SDS011;556;53.550;10.048;2022-08-14T14:53:09;17.55;;;16.77;;
1134;SDS011;556;53.550;10.048;2022-08-14T14:55:36;17.58;;;16.77;;
1134;SDS011;556;53.550;10.048;2022-08-14T14:58:09;18.30;;;17.50;;
1134;SDS011;556;53.550;10.048;2022-08-14T15:00:40;18.50;;;17.70;;
1134;SDS011;556;53.550;10.048;2022-08-14T15:03:08;17.13;;;16.42;;